createdAt,value
2023-10-04T00:00:09.312Z,96158.00
2023-10-04T00:01:09.238Z,96160.00
2023-10-04T00:02:09.179Z,96163.00
2023-10-04T00:03:09.272Z,96160.00
2023-10-04T00:04:09.306Z,96158.00
2023-10-04T00:05:10.183Z,96154.00
2023-10-04T00:06:09.282Z,96146.00
2023-10-04T00:07:09.281Z,96144.00
2023-10-04T00:08:09.343Z,96140.00
2023-10-04T00:09:09.375Z,96140.00
2023-10-04T00:10:10.373Z,96138.00
2023-10-04T00:11:09.447Z,96142.00
2023-10-04T00:49:12.681Z,96146.00
2023-10-04T00:50:12.361Z,96156.00
2023-10-04T00:51:12.635Z,96146.00
2023-10-04T00:52:11.907Z,96154.00
2023-10-04T00:53:12.946Z,96154.00
2023-10-04T00:54:12.943Z,96146.00
2023-10-04T00:55:12.018Z,96154.00
2023-10-04T00:56:11.897Z,96154.00
2023-10-04T00:57:11.999Z,96146.00
2023-10-04T00:58:11.878Z,96154.00
2023-10-04T00:59:12.939Z,96154.00
2023-10-04T01:00:11.985Z,96144.00
2023-10-04T01:01:12.031Z,96146.00
2023-10-04T01:02:12.239Z,96146.00
2023-10-04T01:03:12.077Z,96146.00
2023-10-04T01:04:12.913Z,96146.00
2023-10-04T01:05:11.864Z,96154.00
2023-10-04T01:06:11.909Z,96146.00
2023-10-04T01:07:11.846Z,96154.00
2023-10-04T01:08:12.609Z,96146.00
2023-10-04T01:09:11.835Z,96146.00
2023-10-04T01:10:11.895Z,96144.00
2023-10-04T01:11:11.859Z,96142.00
2023-10-04T01:12:11.892Z,96140.00
2023-10-04T01:13:11.894Z,96140.00
2023-10-04T01:14:11.788Z,96140.00
2023-10-04T01:15:11.889Z,96142.00
2023-10-04T01:16:11.806Z,96144.00
2023-10-04T01:17:11.809Z,96144.00
2023-10-04T01:18:12.035Z,96146.00
2023-10-04T01:19:11.869Z,96156.00
2023-10-04T01:20:11.940Z,96156.00
2023-10-04T01:21:12.112Z,96154.00
2023-10-04T01:22:12.052Z,96154.00
2023-10-04T01:23:11.951Z,96154.00
2023-10-04T01:24:11.947Z,96154.00
2023-10-04T01:25:11.953Z,96154.00
2023-10-04T01:26:12.068Z,96146.00
2023-10-04T01:27:12.300Z,96158.00
2023-10-04T01:28:12.644Z,96158.00
2023-10-04T01:29:12.253Z,96160.00
2023-10-04T01:30:12.560Z,96160.00
2023-10-04T01:31:12.572Z,96156.00
2023-10-04T01:32:12.423Z,96158.00
2023-10-04T01:33:12.900Z,96156.00
2023-10-04T01:34:12.788Z,96156.00
2023-10-04T01:35:12.561Z,96146.00
2023-10-04T01:36:12.738Z,96144.00
2023-10-04T01:37:12.732Z,96144.00
2023-10-04T01:38:12.605Z,96142.00
2023-10-04T01:39:12.606Z,96146.00
2023-10-04T01:40:12.780Z,96146.00
2023-10-04T01:41:12.801Z,96144.00
2023-10-04T01:42:12.914Z,96146.00
2023-10-04T01:43:14.704Z,96154.00
2023-10-04T01:44:12.968Z,96144.00
2023-10-04T01:45:13.002Z,96144.00
2023-10-04T01:46:13.136Z,96146.00
2023-10-04T01:47:13.102Z,96146.00
2023-10-04T01:48:13.160Z,96154.00
2023-10-04T02:15:15.536Z,96142.00
2023-10-04T02:16:07.008Z,96136.00
2023-10-04T02:17:07.159Z,96140.00
2023-10-04T02:18:07.875Z,96138.00
2023-10-04T02:19:06.826Z,96134.00
2023-10-04T02:20:06.836Z,96134.00
2023-10-04T02:21:06.871Z,96130.00
2023-10-04T02:22:06.834Z,96132.00
2023-10-04T02:23:06.841Z,96128.00
2023-10-04T02:24:06.884Z,96126.00
2023-10-04T02:25:06.948Z,96126.00
2023-10-04T02:26:06.839Z,96124.00
2023-10-04T02:27:06.891Z,96120.00
2023-10-04T02:28:06.782Z,96124.00
2023-10-04T02:29:06.789Z,96122.00
2023-10-04T02:30:06.867Z,96122.00
2023-10-04T02:31:06.878Z,96116.00
2023-10-04T02:32:06.810Z,96116.00
2023-10-04T02:33:06.982Z,96114.00
2023-10-04T02:34:06.876Z,96114.00
2023-10-04T02:35:07.033Z,96116.00
2023-10-04T02:36:06.827Z,96114.00
2023-10-04T02:37:06.832Z,96116.00
2023-10-04T02:38:06.801Z,96120.00
2023-10-04T02:39:06.872Z,96118.00
2023-10-04T02:40:06.760Z,96118.00
2023-10-04T02:41:06.796Z,96118.00
2023-10-04T02:42:06.785Z,96118.00
2023-10-04T02:43:07.078Z,96120.00
2023-10-04T02:44:06.695Z,96118.00
2023-10-04T02:45:06.686Z,96118.00
2023-10-04T02:46:06.870Z,96116.00
2023-10-04T02:47:06.714Z,96118.00
2023-10-04T02:48:07.234Z,96118.00
2023-10-04T02:49:06.671Z,96116.00
2023-10-04T02:50:06.822Z,96114.00
2023-10-04T02:51:06.914Z,96116.00
2023-10-04T02:52:06.615Z,96116.00
2023-10-04T02:53:06.749Z,96118.00
2023-10-04T02:54:06.676Z,96118.00
2023-10-04T02:55:06.701Z,96116.00
2023-10-04T02:56:06.566Z,96120.00
2023-10-04T02:57:06.683Z,96120.00
2023-10-04T02:58:06.691Z,96120.00
2023-10-04T02:59:06.723Z,96120.00
2023-10-04T03:00:06.676Z,96124.00
2023-10-04T03:01:06.754Z,96124.00
2023-10-04T03:02:06.648Z,96120.00
2023-10-04T03:03:06.817Z,96122.00
2023-10-04T03:04:06.673Z,96122.00
2023-10-04T03:05:06.728Z,96120.00
2023-10-04T03:06:06.978Z,96120.00
2023-10-04T03:07:06.937Z,96122.00
2023-10-04T03:08:06.838Z,96122.00
2023-10-04T03:09:07.256Z,96122.00
2023-10-04T03:10:06.760Z,96120.00
2023-10-04T03:11:06.767Z,96118.00
2023-10-04T03:12:07.758Z,96124.00
2023-10-04T03:13:07.582Z,96124.00
2023-10-04T03:14:06.884Z,96124.00
2023-10-04T03:15:06.917Z,96124.00
2023-10-04T03:16:08.676Z,96126.00
2023-10-04T03:17:06.949Z,96128.00
2023-10-04T03:18:07.046Z,96128.00
2023-10-04T04:22:01.752Z,96165.00
2023-10-04T04:23:00.591Z,96165.00
2023-10-04T04:24:00.094Z,96167.00
2023-10-04T04:25:00.158Z,96167.00
2023-10-04T04:26:00.334Z,96165.00
2023-10-04T04:27:00.252Z,96167.00
2023-10-04T04:28:00.114Z,96169.00
2023-10-04T04:29:00.694Z,96169.00
2023-10-04T04:30:00.245Z,96173.00
2023-10-04T04:31:00.229Z,96175.00
2023-10-04T04:32:00.184Z,96177.00
2023-10-04T04:33:01.155Z,96177.00
2023-10-04T04:34:00.256Z,96179.00
2023-10-04T04:35:00.578Z,96179.00
2023-10-04T04:36:00.237Z,96177.00
2023-10-04T04:37:00.403Z,96181.00
2023-10-04T07:08:45.804Z,96301.00
2023-10-04T07:09:44.208Z,96301.00
2023-10-04T07:10:44.716Z,96303.00
2023-10-04T07:11:43.889Z,96299.00
2023-10-04T07:12:43.856Z,96303.00
2023-10-04T07:13:43.810Z,96303.00
2023-10-04T07:14:50.921Z,96303.00
2023-10-04T07:15:46.192Z,96303.00
2023-10-04T07:16:43.976Z,96303.00
2023-10-04T07:17:43.836Z,96307.00
2023-10-04T07:18:51.049Z,96307.00
2023-10-04T07:19:45.795Z,96303.00
2023-10-04T07:20:43.905Z,96307.00
2023-10-04T07:21:45.133Z,96303.00
2023-10-04T07:22:44.022Z,96305.00
2023-10-04T07:23:43.844Z,96309.00
2023-10-04T07:24:44.046Z,96309.00
2023-10-04T07:25:45.061Z,96311.00
2023-10-04T07:26:43.787Z,96313.00
2023-10-04T07:27:43.924Z,96313.00
2023-10-04T07:28:44.794Z,96315.00
2023-10-04T07:29:43.717Z,96315.00
2023-10-04T07:30:43.974Z,96317.00
2023-10-04T07:31:43.745Z,96317.00
2023-10-04T07:32:43.875Z,96317.00
2023-10-04T07:33:44.097Z,96315.00
2023-10-04T07:34:45.095Z,96315.00
2023-10-04T13:11:12.062Z,95847.00
2023-10-04T13:12:12.081Z,95841.00
2023-10-04T13:13:12.048Z,95845.00
2023-10-04T13:14:08.716Z,95845.00
2023-10-04T13:15:10.154Z,95845.00
2023-10-04T13:16:09.716Z,95843.00
2023-10-04T13:17:09.647Z,95841.00
2023-10-04T13:18:08.821Z,95845.00
2023-10-04T13:19:08.785Z,95841.00
2023-10-04T13:20:10.174Z,95843.00
2023-10-04T13:21:15.205Z,95847.00
2023-10-04T13:22:13.067Z,95851.00
2023-10-04T13:23:09.275Z,95853.00
2023-10-04T13:24:08.846Z,95853.00
2023-10-04T13:25:08.797Z,95849.00
2023-10-04T13:26:08.835Z,95851.00
2023-10-04T13:27:10.720Z,95853.00
2023-10-04T13:28:08.637Z,95853.00
2023-10-04T13:29:08.820Z,95853.00
2023-10-04T13:30:09.425Z,95853.00
2023-10-04T13:31:10.189Z,95849.00
2023-10-04T13:32:10.176Z,95847.00
2023-10-04T13:33:08.837Z,95847.00
2023-10-04T13:34:09.262Z,95847.00
2023-10-04T13:35:10.208Z,95851.00
2023-10-04T13:36:10.163Z,95849.00
2023-10-04T13:37:14.683Z,95847.00
2023-10-04T13:38:10.097Z,95851.00
2023-10-04T13:39:09.346Z,95851.00
2023-10-04T13:40:09.214Z,95851.00
2023-10-04T13:41:09.264Z,95851.00
2023-10-04T13:42:25.969Z,95855.00
2023-10-04T13:43:11.372Z,95849.00
2023-10-04T13:44:10.255Z,95851.00
2023-10-04T13:45:11.165Z,95855.00
2023-10-04T13:46:09.208Z,95853.00
2023-10-04T13:47:09.452Z,95853.00
2023-10-04T13:48:09.168Z,95853.00
2023-10-04T13:49:09.299Z,95853.00
2023-10-04T13:50:11.759Z,95853.00
2023-10-04T13:51:10.810Z,95853.00
2023-10-04T15:22:57.135Z,95887.00
2023-10-04T15:23:58.795Z,95881.00
2023-10-04T15:24:57.378Z,95885.00
2023-10-04T15:25:57.138Z,95883.00
2023-10-04T15:26:57.328Z,95889.00
2023-10-04T15:27:57.803Z,95883.00
2023-10-04T15:28:56.889Z,95896.00
2023-10-04T15:29:56.321Z,95887.00
2023-10-04T15:30:56.523Z,95887.00
2023-10-04T15:31:56.739Z,95889.00
2023-10-04T15:32:56.197Z,95889.00
2023-10-04T15:33:56.848Z,95896.00
2023-10-04T15:34:57.244Z,95902.00
2023-10-04T15:35:56.368Z,95902.00
2023-10-04T15:36:56.426Z,95904.00
2023-10-04T15:38:03.620Z,95902.00
2023-10-04T15:38:56.243Z,95910.00
2023-10-04T15:39:57.446Z,95914.00
2023-10-04T15:40:56.437Z,95910.00
2023-10-04T15:41:57.169Z,95910.00
2023-10-04T15:42:56.284Z,95914.00
2023-10-04T15:43:56.104Z,95916.00
2023-10-04T15:44:57.141Z,95920.00
2023-10-04T15:45:56.624Z,95918.00
2023-10-04T15:46:56.308Z,95922.00
2023-10-04T15:47:56.289Z,95924.00
2023-10-04T15:48:56.252Z,95928.00
2023-10-04T15:49:55.999Z,95930.00
2023-10-04T15:50:56.327Z,95930.00
2023-10-04T15:51:56.148Z,95932.00
2023-10-04T15:52:56.277Z,95932.00
2023-10-04T15:53:57.302Z,95936.00
2023-10-04T15:54:56.431Z,95934.00
2023-10-04T15:55:57.473Z,95932.00
2023-10-04T15:56:56.807Z,95932.00
2023-10-04T15:57:56.447Z,95932.00
2023-10-04T15:58:56.306Z,95932.00
2023-10-04T15:59:56.324Z,95930.00
2023-10-04T16:00:56.471Z,95930.00
2023-10-04T16:01:56.704Z,95926.00
2023-10-04T16:02:58.244Z,95926.00
2023-10-04T16:03:57.193Z,95926.00
2023-10-04T16:04:56.690Z,95926.00
2023-10-04T16:05:56.451Z,95926.00
2023-10-04T16:06:56.512Z,95932.00
2023-10-04T16:07:57.491Z,95926.00
2023-10-04T16:08:56.922Z,95926.00
2023-10-04T16:09:56.634Z,95926.00
2023-10-04T16:10:56.534Z,95926.00
2023-10-04T16:11:57.299Z,95930.00
2023-10-04T16:12:56.649Z,95928.00
2023-10-04T16:13:57.510Z,95926.00
2023-10-04T16:14:56.517Z,95926.00
2023-10-04T16:15:56.555Z,95924.00
2023-10-04T16:16:56.745Z,95922.00
2023-10-04T16:17:56.813Z,95924.00
2023-10-04T16:18:57.636Z,95920.00
2023-10-04T16:19:57.475Z,95920.00
2023-10-04T16:20:56.536Z,95922.00
2023-10-04T16:21:57.165Z,95922.00
2023-10-04T16:22:56.687Z,95914.00
2023-10-04T16:23:58.372Z,95918.00
2023-10-04T16:24:57.349Z,95920.00
2023-10-04T16:25:58.160Z,95920.00
2023-10-04T16:26:58.611Z,95916.00
2023-10-04T16:27:56.993Z,95912.00
2023-10-04T16:28:57.197Z,95916.00
2023-10-04T16:29:57.542Z,95910.00
2023-10-04T16:30:57.371Z,95904.00
2023-10-04T16:31:57.339Z,95904.00
2023-10-04T16:32:58.589Z,95906.00
2023-10-04T16:33:57.389Z,95900.00
2023-10-04T16:34:57.469Z,95904.00
2023-10-04T16:35:59.292Z,95906.00
2023-10-04T16:36:57.467Z,95910.00
2023-10-04T16:37:57.396Z,95912.00
2023-10-04T16:38:58.366Z,95912.00
2023-10-04T16:39:57.504Z,95912.00
2023-10-04T16:40:57.592Z,95914.00
2023-10-04T16:41:59.629Z,95918.00
2023-10-04T16:42:57.635Z,95922.00
2023-10-04T16:43:57.800Z,95916.00
2023-10-04T16:44:57.584Z,95918.00
2023-10-04T16:45:57.546Z,95920.00
2023-10-04T16:46:57.576Z,95918.00
2023-10-04T16:47:57.665Z,95918.00
2023-10-04T16:48:57.513Z,95918.00
2023-10-04T16:49:57.948Z,95924.00
2023-10-04T16:50:58.200Z,95920.00
2023-10-04T16:51:58.660Z,95928.00
2023-10-04T16:52:57.630Z,95928.00
2023-10-04T16:53:57.458Z,95930.00
2023-10-04T16:54:58.426Z,95932.00
2023-10-04T16:55:57.524Z,95928.00
2023-10-04T16:56:57.682Z,95928.00
2023-10-04T16:57:57.817Z,95932.00
2023-10-04T16:58:57.666Z,95928.00
2023-10-04T16:59:58.031Z,95930.00
2023-10-04T17:00:57.489Z,95930.00
2023-10-04T17:01:57.297Z,95926.00
2023-10-04T17:02:57.953Z,95922.00
2023-10-04T17:03:57.472Z,95930.00
